sensor_id;sensor_type;location;lat;lon;timestamp;P1;durP1;ratioP1;P2;durP2;ratioP2
21505;SDS011;10914;48.886;9.394;2023-04-03T00:01:08;32.72;;;30.70;;
21505;SDS011;10914;48.886;9.394;2023-04-03T00:03:33;31.90;;;29.90;;
21505;SDS011;10914;48.886;9.394;2023-04-03T00:05:59;32.40;;;30.60;;
21505;SDS011;10914;48.886;9.394;2023-04-03T00:08:24;32.75;;;30.85;;
21505;SDS011;10914;48.886;9.394;2023-04-03T00:10:50;33.60;;;31.80;;
21505;SDS011;10914;48.886;9.394;2023-04-03T00:13:15;34.58;;;32.75;;
21505;SDS011;10914;48.886;9.394;2023-04-03T00:15:40;37.15;;;35.15;;
21505;SDS011;10914;48.886;9.394;2023-04-03T00:18:06;38.83;;;36.63;;
21505;SDS011;10914;48.886;9.394;2023-04-03T00:20:32;38.42;;;36.28;;
21505;SDS011;10914;48.886;9.394;2023-04-03T00:22:57;38.63;;;36.55;;
21505;SDS011;10914;48.886;9.394;2023-04-03T00:25:23;40.15;;;38.05;;
21505;SDS011;10914;48.886;9.394;2023-04-03T00:27:48;37.60;;;35.50;;
21505;SDS011;10914;48.886;9.394;2023-04-03T00:30:14;37.63;;;35.60;;
21505;SDS011;10914;48.886;9.394;2023-04-03T00:32:40;35.08;;;33.17;;
21505;SDS011;10914;48.886;9.394;2023-04-03T00:35:05;35.13;;;33.10;;
21505;SDS011;10914;48.886;9.394;2023-04-03T00:37:31;35.58;;;33.58;;
21505;SDS011;10914;48.886;9.394;2023-04-03T00:39:56;35.40;;;33.35;;
21505;SDS011;10914;48.886;9.394;2023-04-03T00:42:22;35.90;;;33.88;;
21505;SDS011;10914;48.886;9.394;2023-04-03T00:47:13;33.60;;;31.70;;
21505;SDS011;10914;48.886;9.394;2023-04-03T00:49:40;31.35;;;29.73;;
21505;SDS011;10914;48.886;9.394;2023-04-03T00:52:07;30.25;;;28.63;;
21505;SDS011;10914;48.886;9.394;2023-04-03T00:54:35;29.35;;;27.73;;
21505;SDS011;10914;48.886;9.394;2023-04-03T00:57:01;29.88;;;28.20;;
21505;SDS011;10914;48.886;9.394;2023-04-03T00:59:27;29.30;;;27.63;;
21505;SDS011;10914;48.886;9.394;2023-04-03T01:01:55;28.63;;;27.02;;
21505;SDS011;10914;48.886;9.394;2023-04-03T01:04:37;27.95;;;26.42;;
21505;SDS011;10914;48.886;9.394;2023-04-03T01:07:10;28.58;;;26.90;;
21505;SDS011;10914;48.886;9.394;2023-04-03T01:09:36;28.42;;;26.73;;
21505;SDS011;10914;48.886;9.394;2023-04-03T01:14:46;30.40;;;28.50;;
21505;SDS011;10914;48.886;9.394;2023-04-03T01:18:12;29.15;;;27.45;;
21505;SDS011;10914;48.886;9.394;2023-04-03T01:22:44;28.92;;;27.23;;
21505;SDS011;10914;48.886;9.394;2023-04-03T01:25:11;28.25;;;26.75;;
21505;SDS011;10914;48.886;9.394;2023-04-03T01:27:36;27.75;;;26.23;;
21505;SDS011;10914;48.886;9.394;2023-04-03T01:30:01;29.67;;;27.85;;
21505;SDS011;10914;48.886;9.394;2023-04-03T01:32:27;28.13;;;26.63;;
21505;SDS011;10914;48.886;9.394;2023-04-03T01:34:52;28.27;;;26.58;;
21505;SDS011;10914;48.886;9.394;2023-04-03T01:37:17;29.10;;;27.40;;
21505;SDS011;10914;48.886;9.394;2023-04-03T01:39:42;29.27;;;27.52;;
21505;SDS011;10914;48.886;9.394;2023-04-03T01:42:08;28.45;;;26.75;;
21505;SDS011;10914;48.886;9.394;2023-04-03T01:44:33;28.23;;;26.63;;
21505;SDS011;10914;48.886;9.394;2023-04-03T01:46:58;28.48;;;26.77;;
21505;SDS011;10914;48.886;9.394;2023-04-03T01:49:23;28.58;;;26.85;;
21505;SDS011;10914;48.886;9.394;2023-04-03T01:51:48;28.50;;;26.90;;
21505;SDS011;10914;48.886;9.394;2023-04-03T01:54:14;28.10;;;26.50;;
21505;SDS011;10914;48.886;9.394;2023-04-03T01:56:39;28.30;;;26.73;;
21505;SDS011;10914;48.886;9.394;2023-04-03T01:59:04;27.58;;;25.95;;
21505;SDS011;10914;48.886;9.394;2023-04-03T02:01:30;27.83;;;26.13;;
21505;SDS011;10914;48.886;9.394;2023-04-03T02:03:55;29.70;;;27.90;;
21505;SDS011;10914;48.886;9.394;2023-04-03T02:06:20;29.92;;;28.02;;
21505;SDS011;10914;48.886;9.394;2023-04-03T02:08:45;31.70;;;29.77;;
21505;SDS011;10914;48.886;9.394;2023-04-03T02:11:11;32.65;;;30.65;;
21505;SDS011;10914;48.886;9.394;2023-04-03T02:13:36;31.85;;;30.05;;
21505;SDS011;10914;48.886;9.394;2023-04-03T02:16:08;33.15;;;31.15;;
21505;SDS011;10914;48.886;9.394;2023-04-03T02:18:34;32.88;;;31.08;;
21505;SDS011;10914;48.886;9.394;2023-04-03T02:21:01;35.65;;;33.50;;
21505;SDS011;10914;48.886;9.394;2023-04-03T02:23:26;36.05;;;33.95;;
21505;SDS011;10914;48.886;9.394;2023-04-03T02:25:51;35.47;;;33.53;;
21505;SDS011;10914;48.886;9.394;2023-04-03T02:28:16;36.13;;;34.00;;
21505;SDS011;10914;48.886;9.394;2023-04-03T02:30:42;35.45;;;33.13;;
21505;SDS011;10914;48.886;9.394;2023-04-03T02:33:07;36.28;;;34.17;;
21505;SDS011;10914;48.886;9.394;2023-04-03T02:35:32;37.03;;;34.97;;
21505;SDS011;10914;48.886;9.394;2023-04-03T02:37:57;38.15;;;36.03;;
21505;SDS011;10914;48.886;9.394;2023-04-03T02:40:23;37.92;;;35.90;;
21505;SDS011;10914;48.886;9.394;2023-04-03T02:42:48;38.58;;;36.35;;
21505;SDS011;10914;48.886;9.394;2023-04-03T02:45:13;36.63;;;34.72;;
21505;SDS011;10914;48.886;9.394;2023-04-03T02:47:38;37.38;;;35.35;;
21505;SDS011;10914;48.886;9.394;2023-04-03T02:50:04;39.80;;;37.25;;
21505;SDS011;10914;48.886;9.394;2023-04-03T02:52:29;42.13;;;38.90;;
21505;SDS011;10914;48.886;9.394;2023-04-03T02:54:54;44.20;;;40.65;;
21505;SDS011;10914;48.886;9.394;2023-04-03T02:57:19;40.53;;;37.70;;
21505;SDS011;10914;48.886;9.394;2023-04-03T02:59:45;41.92;;;39.03;;
21505;SDS011;10914;48.886;9.394;2023-04-03T03:02:10;38.55;;;36.35;;
21505;SDS011;10914;48.886;9.394;2023-04-03T03:04:35;38.05;;;35.83;;
21505;SDS011;10914;48.886;9.394;2023-04-03T03:07:02;36.53;;;34.53;;
21505;SDS011;10914;48.886;9.394;2023-04-03T03:09:27;35.70;;;33.58;;
21505;SDS011;10914;48.886;9.394;2023-04-03T03:11:52;34.63;;;32.65;;
21505;SDS011;10914;48.886;9.394;2023-04-03T03:14:18;35.40;;;33.40;;
21505;SDS011;10914;48.886;9.394;2023-04-03T03:16:43;36.40;;;34.42;;
21505;SDS011;10914;48.886;9.394;2023-04-03T03:19:08;35.65;;;33.65;;
21505;SDS011;10914;48.886;9.394;2023-04-03T03:21:33;35.28;;;33.35;;
21505;SDS011;10914;48.886;9.394;2023-04-03T03:23:59;35.00;;;33.08;;
21505;SDS011;10914;48.886;9.394;2023-04-03T03:26:24;34.58;;;32.47;;
21505;SDS011;10914;48.886;9.394;2023-04-03T03:28:49;34.75;;;32.75;;
21505;SDS011;10914;48.886;9.394;2023-04-03T03:31:15;33.75;;;31.75;;
21505;SDS011;10914;48.886;9.394;2023-04-03T03:33:40;32.83;;;31.00;;
21505;SDS011;10914;48.886;9.394;2023-04-03T03:36:05;33.13;;;31.33;;
21505;SDS011;10914;48.886;9.394;2023-04-03T03:38:31;31.27;;;29.60;;
21505;SDS011;10914;48.886;9.394;2023-04-03T03:40:56;31.47;;;29.77;;
21505;SDS011;10914;48.886;9.394;2023-04-03T03:43:21;31.83;;;30.13;;
21505;SDS011;10914;48.886;9.394;2023-04-03T03:45:49;33.10;;;31.35;;
21505;SDS011;10914;48.886;9.394;2023-04-03T03:48:15;33.35;;;31.55;;
21505;SDS011;10914;48.886;9.394;2023-04-03T03:50:40;32.67;;;30.98;;
21505;SDS011;10914;48.886;9.394;2023-04-03T03:53:05;31.50;;;29.70;;
21505;SDS011;10914;48.886;9.394;2023-04-03T03:55:30;31.92;;;30.23;;
21505;SDS011;10914;48.886;9.394;2023-04-03T03:57:56;32.22;;;30.52;;
21505;SDS011;10914;48.886;9.394;2023-04-03T04:00:21;32.10;;;30.40;;
21505;SDS011;10914;48.886;9.394;2023-04-03T04:02:46;33.30;;;31.55;;
21505;SDS011;10914;48.886;9.394;2023-04-03T04:05:11;32.92;;;31.20;;
21505;SDS011;10914;48.886;9.394;2023-04-03T04:07:37;34.17;;;32.28;;
21505;SDS011;10914;48.886;9.394;2023-04-03T04:10:02;33.67;;;31.83;;
21505;SDS011;10914;48.886;9.394;2023-04-03T04:12:29;32.67;;;30.92;;
21505;SDS011;10914;48.886;9.394;2023-04-03T04:14:54;32.95;;;31.25;;
21505;SDS011;10914;48.886;9.394;2023-04-03T04:17:19;33.75;;;31.88;;
21505;SDS011;10914;48.886;9.394;2023-04-03T04:19:44;33.15;;;31.30;;
21505;SDS011;10914;48.886;9.394;2023-04-03T04:22:10;32.90;;;31.10;;
21505;SDS011;10914;48.886;9.394;2023-04-03T04:24:35;33.53;;;31.67;;
21505;SDS011;10914;48.886;9.394;2023-04-03T04:27:00;33.80;;;32.00;;
21505;SDS011;10914;48.886;9.394;2023-04-03T04:29:25;34.30;;;32.45;;
21505;SDS011;10914;48.886;9.394;2023-04-03T04:31:50;33.90;;;32.10;;
21505;SDS011;10914;48.886;9.394;2023-04-03T04:34:16;33.50;;;31.60;;
21505;SDS011;10914;48.886;9.394;2023-04-03T04:36:41;33.58;;;31.80;;
21505;SDS011;10914;48.886;9.394;2023-04-03T04:39:06;33.80;;;31.90;;
21505;SDS011;10914;48.886;9.394;2023-04-03T04:41:32;33.58;;;31.63;;
21505;SDS011;10914;48.886;9.394;2023-04-03T04:43:57;34.95;;;32.97;;
21505;SDS011;10914;48.886;9.394;2023-04-03T04:46:22;34.67;;;32.67;;
21505;SDS011;10914;48.886;9.394;2023-04-03T04:48:47;36.08;;;34.05;;
21505;SDS011;10914;48.886;9.394;2023-04-03T04:51:13;35.28;;;33.20;;
21505;SDS011;10914;48.886;9.394;2023-04-03T04:53:38;35.53;;;33.53;;
21505;SDS011;10914;48.886;9.394;2023-04-03T04:56:04;35.75;;;33.75;;
21505;SDS011;10914;48.886;9.394;2023-04-03T04:58:29;36.53;;;34.55;;
21505;SDS011;10914;48.886;9.394;2023-04-03T05:01:01;36.40;;;34.40;;
21505;SDS011;10914;48.886;9.394;2023-04-03T05:03:27;36.85;;;34.85;;
21505;SDS011;10914;48.886;9.394;2023-04-03T05:05:52;38.93;;;36.60;;
21505;SDS011;10914;48.886;9.394;2023-04-03T05:08:17;40.47;;;38.27;;
21505;SDS011;10914;48.886;9.394;2023-04-03T05:10:42;38.65;;;36.60;;
21505;SDS011;10914;48.886;9.394;2023-04-03T05:13:09;39.13;;;37.13;;
21505;SDS011;10914;48.886;9.394;2023-04-03T05:15:34;38.17;;;36.03;;
21505;SDS011;10914;48.886;9.394;2023-04-03T05:17:59;36.17;;;34.17;;
21505;SDS011;10914;48.886;9.394;2023-04-03T05:20:25;32.63;;;30.83;;
21505;SDS011;10914;48.886;9.394;2023-04-03T05:22:50;32.47;;;30.67;;
21505;SDS011;10914;48.886;9.394;2023-04-03T05:25:15;31.23;;;29.33;;
21505;SDS011;10914;48.886;9.394;2023-04-03T05:27:40;30.65;;;28.85;;
21505;SDS011;10914;48.886;9.394;2023-04-03T05:30:06;31.63;;;29.73;;
21505;SDS011;10914;48.886;9.394;2023-04-03T05:32:31;29.52;;;27.92;;
21505;SDS011;10914;48.886;9.394;2023-04-03T05:34:57;30.17;;;28.55;;
21505;SDS011;10914;48.886;9.394;2023-04-03T05:37:22;32.53;;;30.67;;
21505;SDS011;10914;48.886;9.394;2023-04-03T05:39:47;34.25;;;32.03;;
21505;SDS011;10914;48.886;9.394;2023-04-03T05:42:13;32.15;;;30.42;;
21505;SDS011;10914;48.886;9.394;2023-04-03T05:44:38;36.30;;;34.30;;
21505;SDS011;10914;48.886;9.394;2023-04-03T05:47:04;37.35;;;35.25;;
21505;SDS011;10914;48.886;9.394;2023-04-03T05:49:29;37.92;;;35.95;;
21505;SDS011;10914;48.886;9.394;2023-04-03T05:51:54;39.88;;;37.67;;
21505;SDS011;10914;48.886;9.394;2023-04-03T05:54:22;38.95;;;36.85;;
21505;SDS011;10914;48.886;9.394;2023-04-03T05:56:48;39.25;;;37.15;;
21505;SDS011;10914;48.886;9.394;2023-04-03T05:59:14;39.20;;;36.97;;
21505;SDS011;10914;48.886;9.394;2023-04-03T06:01:39;38.63;;;36.58;;
21505;SDS011;10914;48.886;9.394;2023-04-03T06:04:05;37.63;;;35.63;;
21505;SDS011;10914;48.886;9.394;2023-04-03T06:06:47;39.85;;;37.75;;
21505;SDS011;10914;48.886;9.394;2023-04-03T06:09:13;38.75;;;36.42;;
21505;SDS011;10914;48.886;9.394;2023-04-03T06:11:38;37.63;;;35.60;;
21505;SDS011;10914;48.886;9.394;2023-04-03T06:14:04;37.03;;;34.85;;
21505;SDS011;10914;48.886;9.394;2023-04-03T06:16:29;34.72;;;32.88;;
21505;SDS011;10914;48.886;9.394;2023-04-03T06:18:54;36.73;;;34.57;;
21505;SDS011;10914;48.886;9.394;2023-04-03T06:21:21;35.83;;;33.88;;
21505;SDS011;10914;48.886;9.394;2023-04-03T06:23:46;34.90;;;33.00;;
21505;SDS011;10914;48.886;9.394;2023-04-03T06:26:11;33.00;;;31.20;;
21505;SDS011;10914;48.886;9.394;2023-04-03T06:28:36;33.45;;;31.65;;
21505;SDS011;10914;48.886;9.394;2023-04-03T06:31:02;31.80;;;30.02;;
21505;SDS011;10914;48.886;9.394;2023-04-03T06:33:27;33.53;;;31.58;;
21505;SDS011;10914;48.886;9.394;2023-04-03T06:35:57;30.45;;;28.80;;
21505;SDS011;10914;48.886;9.394;2023-04-03T06:38:22;30.08;;;28.20;;
21505;SDS011;10914;48.886;9.394;2023-04-03T06:40:48;28.40;;;26.70;;
21505;SDS011;10914;48.886;9.394;2023-04-03T06:43:13;29.02;;;27.13;;
21505;SDS011;10914;48.886;9.394;2023-04-03T06:45:38;28.30;;;26.63;;
21505;SDS011;10914;48.886;9.394;2023-04-03T06:48:04;28.38;;;26.42;;
21505;SDS011;10914;48.886;9.394;2023-04-03T06:50:29;28.80;;;26.90;;
21505;SDS011;10914;48.886;9.394;2023-04-03T06:52:54;28.00;;;26.40;;
21505;SDS011;10914;48.886;9.394;2023-04-03T06:55:19;28.33;;;26.65;;
21505;SDS011;10914;48.886;9.394;2023-04-03T06:57:45;28.13;;;26.42;;
21505;SDS011;10914;48.886;9.394;2023-04-03T07:00:10;27.80;;;26.10;;
21505;SDS011;10914;48.886;9.394;2023-04-03T07:02:36;27.75;;;26.17;;
21505;SDS011;10914;48.886;9.394;2023-04-03T07:05:02;28.38;;;26.77;;
21505;SDS011;10914;48.886;9.394;2023-04-03T07:07:27;27.70;;;25.95;;
21505;SDS011;10914;48.886;9.394;2023-04-03T07:09:53;27.67;;;26.08;;
21505;SDS011;10914;48.886;9.394;2023-04-03T07:12:18;27.38;;;25.88;;
21505;SDS011;10914;48.886;9.394;2023-04-03T07:14:43;27.65;;;25.67;;
21505;SDS011;10914;48.886;9.394;2023-04-03T07:17:08;26.63;;;25.02;;
21505;SDS011;10914;48.886;9.394;2023-04-03T07:19:34;27.33;;;25.70;;
21505;SDS011;10914;48.886;9.394;2023-04-03T07:21:59;25.88;;;24.38;;
21505;SDS011;10914;48.886;9.394;2023-04-03T07:24:24;27.63;;;25.90;;
21505;SDS011;10914;48.886;9.394;2023-04-03T07:26:54;27.95;;;26.25;;
21505;SDS011;10914;48.886;9.394;2023-04-03T07:29:19;27.15;;;25.75;;
21505;SDS011;10914;48.886;9.394;2023-04-03T07:31:46;26.92;;;25.33;;
21505;SDS011;10914;48.886;9.394;2023-04-03T07:34:11;27.13;;;25.52;;
21505;SDS011;10914;48.886;9.394;2023-04-03T07:36:37;26.63;;;25.02;;
21505;SDS011;10914;48.886;9.394;2023-04-03T07:39:02;27.13;;;25.63;;
21505;SDS011;10914;48.886;9.394;2023-04-03T07:41:27;27.30;;;25.70;;
21505;SDS011;10914;48.886;9.394;2023-04-03T07:43:53;27.15;;;25.63;;
21505;SDS011;10914;48.886;9.394;2023-04-03T07:46:20;28.77;;;26.95;;
21505;SDS011;10914;48.886;9.394;2023-04-03T07:48:46;27.50;;;25.80;;
21505;SDS011;10914;48.886;9.394;2023-04-03T07:51:11;27.08;;;25.48;;
21505;SDS011;10914;48.886;9.394;2023-04-03T07:53:39;27.73;;;26.13;;
21505;SDS011;10914;48.886;9.394;2023-04-03T07:56:04;27.27;;;25.60;;
21505;SDS011;10914;48.886;9.394;2023-04-03T07:58:29;28.88;;;26.98;;
21505;SDS011;10914;48.886;9.394;2023-04-03T08:00:55;27.95;;;26.13;;
21505;SDS011;10914;48.886;9.394;2023-04-03T08:03:21;27.73;;;26.05;;
21505;SDS011;10914;48.886;9.394;2023-04-03T08:05:47;27.98;;;26.27;;
21505;SDS011;10914;48.886;9.394;2023-04-03T08:08:14;26.88;;;25.48;;
21505;SDS011;10914;48.886;9.394;2023-04-03T08:10:39;27.20;;;25.70;;
21505;SDS011;10914;48.886;9.394;2023-04-03T08:13:05;26.77;;;25.38;;
21505;SDS011;10914;48.886;9.394;2023-04-03T08:15:30;27.42;;;25.83;;
21505;SDS011;10914;48.886;9.394;2023-04-03T08:17:56;27.08;;;25.35;;
21505;SDS011;10914;48.886;9.394;2023-04-03T08:20:22;27.90;;;26.05;;
21505;SDS011;10914;48.886;9.394;2023-04-03T08:22:47;26.70;;;25.23;;
21505;SDS011;10914;48.886;9.394;2023-04-03T08:25:12;26.73;;;25.05;;
21505;SDS011;10914;48.886;9.394;2023-04-03T08:27:38;27.42;;;25.77;;
21505;SDS011;10914;48.886;9.394;2023-04-03T08:30:06;27.35;;;25.65;;
21505;SDS011;10914;48.886;9.394;2023-04-03T08:32:33;26.95;;;25.30;;
21505;SDS011;10914;48.886;9.394;2023-04-03T08:34:59;26.38;;;24.92;;
21505;SDS011;10914;48.886;9.394;2023-04-03T08:37:25;26.80;;;25.13;;
21505;SDS011;10914;48.886;9.394;2023-04-03T08:39:50;26.55;;;24.85;;
21505;SDS011;10914;48.886;9.394;2023-04-03T08:45:06;27.27;;;25.88;;
21505;SDS011;10914;48.886;9.394;2023-04-03T08:50:18;26.70;;;25.10;;
21505;SDS011;10914;48.886;9.394;2023-04-03T08:52:45;27.13;;;25.48;;
21505;SDS011;10914;48.886;9.394;2023-04-03T08:55:23;25.77;;;24.35;;
21505;SDS011;10914;48.886;9.394;2023-04-03T08:57:51;26.27;;;24.67;;
21505;SDS011;10914;48.886;9.394;2023-04-03T09:00:18;26.88;;;25.02;;
21505;SDS011;10914;48.886;9.394;2023-04-03T09:02:45;25.83;;;24.40;;
21505;SDS011;10914;48.886;9.394;2023-04-03T09:05:13;27.30;;;25.85;;
21505;SDS011;10914;48.886;9.394;2023-04-03T09:07:49;28.55;;;27.05;;
21505;SDS011;10914;48.886;9.394;2023-04-03T09:10:23;29.63;;;27.92;;
21505;SDS011;10914;48.886;9.394;2023-04-03T09:12:59;29.65;;;28.00;;
21505;SDS011;10914;48.886;9.394;2023-04-03T09:15:26;30.80;;;28.95;;
21505;SDS011;10914;48.886;9.394;2023-04-03T09:18:11;29.65;;;28.10;;
21505;SDS011;10914;48.886;9.394;2023-04-03T09:20:40;31.20;;;29.45;;
21505;SDS011;10914;48.886;9.394;2023-04-03T09:23:14;30.70;;;28.92;;
21505;SDS011;10914;48.886;9.394;2023-04-03T09:25:41;29.75;;;28.15;;
21505;SDS011;10914;48.886;9.394;2023-04-03T09:28:07;29.55;;;27.75;;
21505;SDS011;10914;48.886;9.394;2023-04-03T09:30:35;27.48;;;26.00;;
21505;SDS011;10914;48.886;9.394;2023-04-03T09:33:00;27.88;;;26.38;;
21505;SDS011;10914;48.886;9.394;2023-04-03T09:35:26;28.45;;;26.67;;
21505;SDS011;10914;48.886;9.394;2023-04-03T09:37:59;31.20;;;29.40;;
21505;SDS011;10914;48.886;9.394;2023-04-03T09:42:50;30.20;;;28.50;;
21505;SDS011;10914;48.886;9.394;2023-04-03T09:45:26;29.38;;;27.77;;
21505;SDS011;10914;48.886;9.394;2023-04-03T09:50:30;30.60;;;28.85;;
21505;SDS011;10914;48.886;9.394;2023-04-03T09:52:55;29.45;;;27.77;;
21505;SDS011;10914;48.886;9.394;2023-04-03T09:55:25;29.17;;;27.55;;
21505;SDS011;10914;48.886;9.394;2023-04-03T09:58:01;29.90;;;28.25;;
21505;SDS011;10914;48.886;9.394;2023-04-03T10:00:31;28.23;;;26.73;;
21505;SDS011;10914;48.886;9.394;2023-04-03T10:02:58;29.33;;;27.65;;
21505;SDS011;10914;48.886;9.394;2023-04-03T10:07:51;29.30;;;27.73;;
21505;SDS011;10914;48.886;9.394;2023-04-03T10:10:18;29.52;;;27.92;;
21505;SDS011;10914;48.886;9.394;2023-04-03T10:12:45;29.52;;;27.98;;
21505;SDS011;10914;48.886;9.394;2023-04-03T10:15:14;29.25;;;27.65;;
21505;SDS011;10914;48.886;9.394;2023-04-03T10:18:00;30.33;;;28.73;;
21505;SDS011;10914;48.886;9.394;2023-04-03T10:20:37;29.40;;;27.80;;
21505;SDS011;10914;48.886;9.394;2023-04-03T10:23:13;29.83;;;28.23;;
21505;SDS011;10914;48.886;9.394;2023-04-03T10:28:38;29.35;;;27.65;;
21505;SDS011;10914;48.886;9.394;2023-04-03T10:33:53;27.55;;;26.05;;
21505;SDS011;10914;48.886;9.394;2023-04-03T10:41:43;26.77;;;25.38;;
21505;SDS011;10914;48.886;9.394;2023-04-03T10:46:42;26.00;;;24.40;;
21505;SDS011;10914;48.886;9.394;2023-04-03T10:51:47;26.13;;;24.73;;
21505;SDS011;10914;48.886;9.394;2023-04-03T10:54:25;26.75;;;25.08;;
21505;SDS011;10914;48.886;9.394;2023-04-03T10:57:04;27.42;;;25.80;;
21505;SDS011;10914;48.886;9.394;2023-04-03T10:59:47;28.90;;;27.20;;
21505;SDS011;10914;48.886;9.394;2023-04-03T11:02:16;29.77;;;28.05;;
21505;SDS011;10914;48.886;9.394;2023-04-03T11:04:42;27.95;;;26.27;;
21505;SDS011;10914;48.886;9.394;2023-04-03T11:07:17;28.90;;;27.40;;
21505;SDS011;10914;48.886;9.394;2023-04-03T11:09:44;29.40;;;27.90;;
21505;SDS011;10914;48.886;9.394;2023-04-03T11:12:13;28.17;;;26.67;;
21505;SDS011;10914;48.886;9.394;2023-04-03T11:14:39;26.67;;;25.15;;
21505;SDS011;10914;48.886;9.394;2023-04-03T11:22:29;28.38;;;26.98;;
21505;SDS011;10914;48.886;9.394;2023-04-03T11:25:06;27.52;;;26.02;;
21505;SDS011;10914;48.886;9.394;2023-04-03T11:27:44;26.85;;;25.45;;
21505;SDS011;10914;48.886;9.394;2023-04-03T11:35:23;24.92;;;23.52;;
21505;SDS011;10914;48.886;9.394;2023-04-03T11:37:50;26.33;;;24.63;;
21505;SDS011;10914;48.886;9.394;2023-04-03T11:42:42;26.85;;;25.35;;
21505;SDS011;10914;48.886;9.394;2023-04-03T11:47:45;24.38;;;23.08;;
21505;SDS011;10914;48.886;9.394;2023-04-03T11:55:46;23.77;;;22.55;;
21505;SDS011;10914;48.886;9.394;2023-04-03T11:58:17;24.00;;;22.60;;
21505;SDS011;10914;48.886;9.394;2023-04-03T12:13:35;24.50;;;23.20;;
21505;SDS011;10914;48.886;9.394;2023-04-03T12:16:00;24.23;;;22.90;;
21505;SDS011;10914;48.886;9.394;2023-04-03T12:18:43;24.92;;;23.58;;
21505;SDS011;10914;48.886;9.394;2023-04-03T12:21:12;24.67;;;23.27;;
21505;SDS011;10914;48.886;9.394;2023-04-03T12:26:25;25.35;;;24.05;;
21505;SDS011;10914;48.886;9.394;2023-04-03T12:28:52;25.65;;;24.27;;
21505;SDS011;10914;48.886;9.394;2023-04-03T12:31:18;24.70;;;23.40;;
21505;SDS011;10914;48.886;9.394;2023-04-03T12:41:36;23.70;;;22.40;;
21505;SDS011;10914;48.886;9.394;2023-04-03T12:46:38;24.67;;;23.17;;
21505;SDS011;10914;48.886;9.394;2023-04-03T12:49:51;24.50;;;23.00;;
21505;SDS011;10914;48.886;9.394;2023-04-03T12:51:51;24.88;;;23.35;;
21505;SDS011;10914;48.886;9.394;2023-04-03T12:54:30;24.00;;;22.75;;
21505;SDS011;10914;48.886;9.394;2023-04-03T12:59:41;23.52;;;22.27;;
21505;SDS011;10914;48.886;9.394;2023-04-03T13:02:19;24.15;;;22.85;;
21505;SDS011;10914;48.886;9.394;2023-04-03T13:04:46;24.08;;;22.67;;
21505;SDS011;10914;48.886;9.394;2023-04-03T13:07:28;24.58;;;23.17;;
21505;SDS011;10914;48.886;9.394;2023-04-03T13:09:57;24.50;;;23.10;;
21505;SDS011;10914;48.886;9.394;2023-04-03T13:12:22;24.10;;;22.80;;
21505;SDS011;10914;48.886;9.394;2023-04-03T13:14:54;24.63;;;23.30;;
21505;SDS011;10914;48.886;9.394;2023-04-03T13:17:20;24.38;;;23.05;;
21505;SDS011;10914;48.886;9.394;2023-04-03T13:19:46;25.30;;;23.77;;
21505;SDS011;10914;48.886;9.394;2023-04-03T13:22:34;25.80;;;24.27;;
21505;SDS011;10914;48.886;9.394;2023-04-03T13:25:05;24.98;;;23.58;;
21505;SDS011;10914;48.886;9.394;2023-04-03T13:27:31;23.92;;;22.73;;
21505;SDS011;10914;48.886;9.394;2023-04-03T13:29:57;24.80;;;23.15;;
21505;SDS011;10914;48.886;9.394;2023-04-03T13:32:24;25.40;;;24.00;;
21505;SDS011;10914;48.886;9.394;2023-04-03T13:34:51;24.30;;;23.00;;
21505;SDS011;10914;48.886;9.394;2023-04-03T13:37:52;25.30;;;23.58;;
21505;SDS011;10914;48.886;9.394;2023-04-03T13:42:34;25.05;;;23.58;;
21505;SDS011;10914;48.886;9.394;2023-04-03T13:45:16;24.30;;;22.80;;
21505;SDS011;10914;48.886;9.394;2023-04-03T13:47:42;24.38;;;23.08;;
21505;SDS011;10914;48.886;9.394;2023-04-03T13:52:45;24.45;;;23.00;;
21505;SDS011;10914;48.886;9.394;2023-04-03T13:55:25;23.45;;;22.15;;
21505;SDS011;10914;48.886;9.394;2023-04-03T13:57:56;24.58;;;23.02;;
21505;SDS011;10914;48.886;9.394;2023-04-03T14:02:56;24.40;;;23.00;;
21505;SDS011;10914;48.886;9.394;2023-04-03T14:05:21;24.40;;;23.02;;
21505;SDS011;10914;48.886;9.394;2023-04-03T14:07:46;24.38;;;23.00;;
21505;SDS011;10914;48.886;9.394;2023-04-03T14:10:13;24.42;;;22.90;;
21505;SDS011;10914;48.886;9.394;2023-04-03T14:12:39;24.60;;;23.05;;
21505;SDS011;10914;48.886;9.394;2023-04-03T14:15:27;24.38;;;23.10;;
21505;SDS011;10914;48.886;9.394;2023-04-03T14:17:51;24.63;;;23.08;;
21505;SDS011;10914;48.886;9.394;2023-04-03T14:20:17;24.90;;;23.60;;
21505;SDS011;10914;48.886;9.394;2023-04-03T14:22:43;24.45;;;23.00;;
21505;SDS011;10914;48.886;9.394;2023-04-03T14:25:08;23.90;;;22.50;;
21505;SDS011;10914;48.886;9.394;2023-04-03T14:27:34;24.20;;;22.90;;
21505;SDS011;10914;48.886;9.394;2023-04-03T14:30:00;24.83;;;23.42;;
21505;SDS011;10914;48.886;9.394;2023-04-03T14:32:28;23.77;;;22.58;;
21505;SDS011;10914;48.886;9.394;2023-04-03T14:34:53;24.55;;;23.25;;
21505;SDS011;10914;48.886;9.394;2023-04-03T14:37:23;24.42;;;23.13;;
21505;SDS011;10914;48.886;9.394;2023-04-03T14:39:49;24.23;;;22.90;;
21505;SDS011;10914;48.886;9.394;2023-04-03T14:42:16;24.20;;;22.90;;
21505;SDS011;10914;48.886;9.394;2023-04-03T14:44:42;24.08;;;22.75;;
21505;SDS011;10914;48.886;9.394;2023-04-03T14:47:14;24.35;;;23.05;;
21505;SDS011;10914;48.886;9.394;2023-04-03T14:49:40;24.38;;;23.17;;
21505;SDS011;10914;48.886;9.394;2023-04-03T14:52:06;24.27;;;22.77;;
21505;SDS011;10914;48.886;9.394;2023-04-03T14:54:40;24.17;;;22.88;;
21505;SDS011;10914;48.886;9.394;2023-04-03T14:57:08;24.90;;;23.60;;
21505;SDS011;10914;48.886;9.394;2023-04-03T14:59:34;24.02;;;22.60;;
21505;SDS011;10914;48.886;9.394;2023-04-03T15:01:59;24.48;;;23.17;;
21505;SDS011;10914;48.886;9.394;2023-04-03T15:04:24;24.35;;;23.05;;
21505;SDS011;10914;48.886;9.394;2023-04-03T15:06:50;24.13;;;22.73;;
21505;SDS011;10914;48.886;9.394;2023-04-03T15:09:26;24.42;;;22.73;;
21505;SDS011;10914;48.886;9.394;2023-04-03T15:11:52;23.88;;;22.67;;
21505;SDS011;10914;48.886;9.394;2023-04-03T15:14:18;23.90;;;22.58;;
21505;SDS011;10914;48.886;9.394;2023-04-03T15:16:43;24.23;;;22.92;;
21505;SDS011;10914;48.886;9.394;2023-04-03T15:19:09;24.00;;;22.60;;
21505;SDS011;10914;48.886;9.394;2023-04-03T15:21:34;23.85;;;22.52;;
21505;SDS011;10914;48.886;9.394;2023-04-03T15:24:00;23.75;;;22.35;;
21505;SDS011;10914;48.886;9.394;2023-04-03T15:26:25;24.02;;;22.80;;
21505;SDS011;10914;48.886;9.394;2023-04-03T15:28:50;24.17;;;22.70;;
21505;SDS011;10914;48.886;9.394;2023-04-03T15:31:15;24.30;;;22.80;;
21505;SDS011;10914;48.886;9.394;2023-04-03T15:33:41;24.08;;;22.77;;
21505;SDS011;10914;48.886;9.394;2023-04-03T15:36:06;23.58;;;22.27;;
21505;SDS011;10914;48.886;9.394;2023-04-03T15:38:31;24.65;;;23.25;;
21505;SDS011;10914;48.886;9.394;2023-04-03T15:40:57;25.30;;;23.77;;
21505;SDS011;10914;48.886;9.394;2023-04-03T15:43:22;25.05;;;23.55;;
21505;SDS011;10914;48.886;9.394;2023-04-03T15:45:48;24.58;;;23.27;;
21505;SDS011;10914;48.886;9.394;2023-04-03T15:48:14;24.05;;;22.75;;
21505;SDS011;10914;48.886;9.394;2023-04-03T15:50:39;24.20;;;22.63;;
21505;SDS011;10914;48.886;9.394;2023-04-03T15:53:05;27.42;;;25.25;;
21505;SDS011;10914;48.886;9.394;2023-04-03T15:55:32;25.52;;;24.00;;